sensor_id;sensor_type;location;lat;lon;timestamp;P1;durP1;ratioP1;P2;durP2;ratioP2
28296;SDS011;62078;49.366;8.172;2023-12-28T10:19:38;3.28;;;1.38;;
28296;SDS011;62078;49.366;8.172;2023-12-28T11:19:39;7.03;;;0.95;;
28296;SDS011;62078;49.366;8.172;2023-12-28T11:22:06;2.15;;;1.00;;
28296;SDS011;62078;49.366;8.172;2023-12-28T11:24:32;2.55;;;1.20;;
28296;SDS011;62078;49.366;8.172;2023-12-28T11:26:59;2.85;;;1.00;;
28296;SDS011;62078;49.366;8.172;2023-12-28T11:29:29;4.55;;;1.10;;
28296;SDS011;62078;49.366;8.172;2023-12-28T11:31:58;2.47;;;1.13;;
28296;SDS011;62078;49.366;8.172;2023-12-28T11:34:26;2.17;;;0.98;;
28296;SDS011;62078;49.366;8.172;2023-12-28T11:36:54;2.70;;;1.10;;
28296;SDS011;62078;49.366;8.172;2023-12-28T11:39:32;2.25;;;1.08;;
28296;SDS011;62078;49.366;8.172;2023-12-28T11:42:00;2.88;;;1.10;;
28296;SDS011;62078;49.366;8.172;2023-12-28T11:44:30;3.03;;;1.10;;
28296;SDS011;62078;49.366;8.172;2023-12-28T11:46:56;3.97;;;0.85;;
28296;SDS011;62078;49.366;8.172;2023-12-28T11:49:26;4.32;;;1.10;;
28296;SDS011;62078;49.366;8.172;2023-12-28T11:51:54;1.98;;;0.98;;
28296;SDS011;62078;49.366;8.172;2023-12-28T11:54:24;4.95;;;1.23;;
28296;SDS011;62078;49.366;8.172;2023-12-28T11:56:50;2.92;;;1.17;;
28296;SDS011;62078;49.366;8.172;2023-12-28T11:59:17;3.65;;;1.05;;
28296;SDS011;62078;49.366;8.172;2023-12-28T12:01:44;2.20;;;1.00;;
28296;SDS011;62078;49.366;8.172;2023-12-28T12:04:20;5.75;;;1.33;;
28296;SDS011;62078;49.366;8.172;2023-12-28T12:06:46;1.88;;;0.98;;
28296;SDS011;62078;49.366;8.172;2023-12-28T12:09:13;3.03;;;1.15;;
28296;SDS011;62078;49.366;8.172;2023-12-28T12:11:39;3.47;;;0.95;;
28296;SDS011;62078;49.366;8.172;2023-12-28T12:14:09;3.85;;;1.25;;
28296;SDS011;62078;49.366;8.172;2023-12-28T12:16:35;5.00;;;1.20;;
28296;SDS011;62078;49.366;8.172;2023-12-28T12:19:03;2.72;;;1.05;;
28296;SDS011;62078;49.366;8.172;2023-12-28T12:21:32;2.40;;;1.10;;
28296;SDS011;62078;49.366;8.172;2023-12-28T12:23:59;4.05;;;1.13;;
28296;SDS011;62078;49.366;8.172;2023-12-28T12:26:26;3.25;;;1.00;;
28296;SDS011;62078;49.366;8.172;2023-12-28T12:28:52;2.80;;;1.05;;
28296;SDS011;62078;49.366;8.172;2023-12-28T12:31:18;3.30;;;1.15;;
28296;SDS011;62078;49.366;8.172;2023-12-28T12:33:44;5.95;;;0.93;;
28296;SDS011;62078;49.366;8.172;2023-12-28T12:36:10;1.98;;;1.20;;
28296;SDS011;62078;49.366;8.172;2023-12-28T12:38:36;2.47;;;0.98;;
28296;SDS011;62078;49.366;8.172;2023-12-28T12:41:02;3.28;;;0.98;;
28296;SDS011;62078;49.366;8.172;2023-12-28T12:43:28;5.47;;;1.02;;
28296;SDS011;62078;49.366;8.172;2023-12-28T12:45:54;3.22;;;1.20;;
28296;SDS011;62078;49.366;8.172;2023-12-28T12:48:20;3.15;;;1.02;;
28296;SDS011;62078;49.366;8.172;2023-12-28T12:50:46;3.53;;;0.85;;
28296;SDS011;62078;49.366;8.172;2023-12-28T12:53:12;5.05;;;1.23;;
28296;SDS011;62078;49.366;8.172;2023-12-28T12:55:38;4.22;;;1.00;;
28296;SDS011;62078;49.366;8.172;2023-12-28T12:58:04;2.60;;;0.88;;
28296;SDS011;62078;49.366;8.172;2023-12-28T13:00:30;2.58;;;1.13;;
28296;SDS011;62078;49.366;8.172;2023-12-28T13:02:58;1.95;;;0.90;;
28296;SDS011;62078;49.366;8.172;2023-12-28T13:05:24;2.10;;;1.00;;
28296;SDS011;62078;49.366;8.172;2023-12-28T13:07:51;2.88;;;1.00;;
28296;SDS011;62078;49.366;8.172;2023-12-28T13:10:16;2.40;;;0.95;;
28296;SDS011;62078;49.366;8.172;2023-12-28T13:12:42;2.72;;;1.08;;
28296;SDS011;62078;49.366;8.172;2023-12-28T13:15:08;3.55;;;0.95;;
28296;SDS011;62078;49.366;8.172;2023-12-28T13:17:35;2.60;;;1.00;;
28296;SDS011;62078;49.366;8.172;2023-12-28T13:20:02;3.15;;;1.08;;
28296;SDS011;62078;49.366;8.172;2023-12-28T13:22:29;2.15;;;1.00;;
28296;SDS011;62078;49.366;8.172;2023-12-28T13:24:54;2.00;;;0.85;;
28296;SDS011;62078;49.366;8.172;2023-12-28T13:27:20;3.30;;;1.08;;
28296;SDS011;62078;49.366;8.172;2023-12-28T13:29:45;2.30;;;0.90;;
28296;SDS011;62078;49.366;8.172;2023-12-28T13:32:11;3.15;;;1.17;;
28296;SDS011;62078;49.366;8.172;2023-12-28T13:34:37;3.45;;;1.20;;
28296;SDS011;62078;49.366;8.172;2023-12-28T13:37:02;3.05;;;1.10;;
28296;SDS011;62078;49.366;8.172;2023-12-28T13:39:28;2.97;;;1.08;;
28296;SDS011;62078;49.366;8.172;2023-12-28T13:41:54;2.92;;;1.20;;
28296;SDS011;62078;49.366;8.172;2023-12-28T13:44:20;2.90;;;1.00;;
28296;SDS011;62078;49.366;8.172;2023-12-28T13:46:46;2.47;;;1.17;;
28296;SDS011;62078;49.366;8.172;2023-12-28T13:49:11;2.08;;;1.10;;
28296;SDS011;62078;49.366;8.172;2023-12-28T13:51:37;5.47;;;1.23;;
28296;SDS011;62078;49.366;8.172;2023-12-28T13:54:03;3.03;;;1.10;;
28296;SDS011;62078;49.366;8.172;2023-12-28T13:56:28;1.92;;;0.75;;
28296;SDS011;62078;49.366;8.172;2023-12-28T13:58:54;3.22;;;0.95;;
28296;SDS011;62078;49.366;8.172;2023-12-28T14:01:20;3.47;;;1.10;;
28296;SDS011;62078;49.366;8.172;2023-12-28T14:03:46;2.63;;;0.95;;
28296;SDS011;62078;49.366;8.172;2023-12-28T14:06:13;2.58;;;1.00;;
28296;SDS011;62078;49.366;8.172;2023-12-28T14:08:39;5.07;;;1.38;;
28296;SDS011;62078;49.366;8.172;2023-12-28T14:11:05;4.32;;;1.30;;
28296;SDS011;62078;49.366;8.172;2023-12-28T14:13:30;2.90;;;0.73;;
28296;SDS011;62078;49.366;8.172;2023-12-28T14:15:56;3.28;;;1.10;;
28296;SDS011;62078;49.366;8.172;2023-12-28T14:18:22;1.67;;;0.70;;
28296;SDS011;62078;49.366;8.172;2023-12-28T14:20:48;2.78;;;0.77;;
28296;SDS011;62078;49.366;8.172;2023-12-28T14:23:13;1.80;;;0.63;;
28296;SDS011;62078;49.366;8.172;2023-12-28T14:25:40;2.33;;;0.90;;
28296;SDS011;62078;49.366;8.172;2023-12-28T14:28:06;2.20;;;0.82;;
28296;SDS011;62078;49.366;8.172;2023-12-28T14:30:32;3.85;;;0.90;;
28296;SDS011;62078;49.366;8.172;2023-12-28T14:32:58;2.20;;;0.85;;
28296;SDS011;62078;49.366;8.172;2023-12-28T14:35:24;1.60;;;0.70;;
28296;SDS011;62078;49.366;8.172;2023-12-28T14:37:50;2.50;;;1.00;;
28296;SDS011;62078;49.366;8.172;2023-12-28T14:40:16;1.65;;;0.60;;
28296;SDS011;62078;49.366;8.172;2023-12-28T14:42:41;3.13;;;0.90;;
28296;SDS011;62078;49.366;8.172;2023-12-28T14:45:07;1.85;;;0.80;;
28296;SDS011;62078;49.366;8.172;2023-12-28T14:47:33;1.75;;;0.77;;
28296;SDS011;62078;49.366;8.172;2023-12-28T14:50:00;2.55;;;1.10;;
28296;SDS011;62078;49.366;8.172;2023-12-28T14:52:27;2.22;;;0.70;;
28296;SDS011;62078;49.366;8.172;2023-12-28T14:54:53;5.22;;;1.00;;
28296;SDS011;62078;49.366;8.172;2023-12-28T14:57:19;8.38;;;1.02;;
28296;SDS011;62078;49.366;8.172;2023-12-28T14:59:47;1.98;;;0.77;;
28296;SDS011;62078;49.366;8.172;2023-12-28T15:02:13;1.83;;;0.73;;
28296;SDS011;62078;49.366;8.172;2023-12-28T15:04:38;2.53;;;0.95;;
28296;SDS011;62078;49.366;8.172;2023-12-28T15:07:05;6.78;;;1.13;;
28296;SDS011;62078;49.366;8.172;2023-12-28T15:09:31;3.38;;;0.90;;
28296;SDS011;62078;49.366;8.172;2023-12-28T15:11:57;1.80;;;0.70;;
28296;SDS011;62078;49.366;8.172;2023-12-28T15:14:24;5.85;;;0.77;;
28296;SDS011;62078;49.366;8.172;2023-12-28T15:16:50;5.13;;;1.10;;
28296;SDS011;62078;49.366;8.172;2023-12-28T15:19:16;6.50;;;0.95;;
28296;SDS011;62078;49.366;8.172;2023-12-28T15:21:42;1.83;;;0.80;;
28296;SDS011;62078;49.366;8.172;2023-12-28T15:24:09;1.75;;;0.82;;
28296;SDS011;62078;49.366;8.172;2023-12-28T15:26:35;1.60;;;0.70;;
28296;SDS011;62078;49.366;8.172;2023-12-28T15:29:01;3.65;;;1.00;;
28296;SDS011;62078;49.366;8.172;2023-12-28T15:31:28;2.33;;;0.80;;
28296;SDS011;62078;49.366;8.172;2023-12-28T15:33:55;1.90;;;0.80;;
28296;SDS011;62078;49.366;8.172;2023-12-28T15:36:21;1.80;;;1.00;;
28296;SDS011;62078;49.366;8.172;2023-12-28T15:38:47;4.72;;;0.70;;
28296;SDS011;62078;49.366;8.172;2023-12-28T15:41:13;3.50;;;0.82;;
28296;SDS011;62078;49.366;8.172;2023-12-28T15:43:39;2.05;;;0.90;;
28296;SDS011;62078;49.366;8.172;2023-12-28T15:46:05;2.10;;;0.88;;
28296;SDS011;62078;49.366;8.172;2023-12-28T15:48:31;1.83;;;0.88;;
28296;SDS011;62078;49.366;8.172;2023-12-28T15:50:57;2.25;;;0.90;;
28296;SDS011;62078;49.366;8.172;2023-12-28T15:53:24;1.65;;;0.73;;
28296;SDS011;62078;49.366;8.172;2023-12-28T15:55:50;2.35;;;0.90;;
28296;SDS011;62078;49.366;8.172;2023-12-28T15:58:15;2.60;;;0.90;;
28296;SDS011;62078;49.366;8.172;2023-12-28T16:00:41;3.75;;;0.77;;
28296;SDS011;62078;49.366;8.172;2023-12-28T16:03:08;2.63;;;0.95;;
28296;SDS011;62078;49.366;8.172;2023-12-28T16:05:35;1.27;;;0.70;;
28296;SDS011;62078;49.366;8.172;2023-12-28T16:08:01;2.50;;;0.70;;
28296;SDS011;62078;49.366;8.172;2023-12-28T16:10:28;1.95;;;0.80;;
28296;SDS011;62078;49.366;8.172;2023-12-28T16:12:53;1.20;;;0.70;;
28296;SDS011;62078;49.366;8.172;2023-12-28T16:15:19;1.80;;;0.75;;
28296;SDS011;62078;49.366;8.172;2023-12-28T16:17:45;1.88;;;0.82;;
28296;SDS011;62078;49.366;8.172;2023-12-28T16:20:12;1.92;;;0.70;;
28296;SDS011;62078;49.366;8.172;2023-12-28T16:22:38;3.10;;;0.80;;
28296;SDS011;62078;49.366;8.172;2023-12-28T16:25:04;2.05;;;1.00;;
28296;SDS011;62078;49.366;8.172;2023-12-28T16:27:31;2.42;;;0.88;;
28296;SDS011;62078;49.366;8.172;2023-12-28T16:29:57;1.83;;;0.90;;
28296;SDS011;62078;49.366;8.172;2023-12-28T16:32:22;3.72;;;0.70;;
28296;SDS011;62078;49.366;8.172;2023-12-28T16:34:48;2.33;;;0.80;;
28296;SDS011;62078;49.366;8.172;2023-12-28T16:37:14;1.90;;;0.60;;
28296;SDS011;62078;49.366;8.172;2023-12-28T16:39:40;1.40;;;0.65;;
28296;SDS011;62078;49.366;8.172;2023-12-28T16:42:05;1.17;;;0.60;;
28296;SDS011;62078;49.366;8.172;2023-12-28T16:44:31;3.65;;;0.80;;
28296;SDS011;62078;49.366;8.172;2023-12-28T16:46:57;2.55;;;0.80;;
28296;SDS011;62078;49.366;8.172;2023-12-28T16:49:23;4.00;;;0.75;;
28296;SDS011;62078;49.366;8.172;2023-12-28T16:51:49;2.97;;;0.73;;
28296;SDS011;62078;49.366;8.172;2023-12-28T16:54:14;2.53;;;0.80;;
28296;SDS011;62078;49.366;8.172;2023-12-28T16:56:42;2.97;;;0.90;;
28296;SDS011;62078;49.366;8.172;2023-12-28T16:59:08;3.47;;;0.93;;
28296;SDS011;62078;49.366;8.172;2023-12-28T17:01:33;3.00;;;1.10;;
28296;SDS011;62078;49.366;8.172;2023-12-28T17:03:59;2.70;;;0.88;;
28296;SDS011;62078;49.366;8.172;2023-12-28T17:06:25;1.48;;;0.70;;
28296;SDS011;62078;49.366;8.172;2023-12-28T17:08:51;2.03;;;0.80;;
28296;SDS011;62078;49.366;8.172;2023-12-28T17:11:17;2.38;;;0.77;;
28296;SDS011;62078;49.366;8.172;2023-12-28T17:13:45;1.17;;;0.77;;
28296;SDS011;62078;49.366;8.172;2023-12-28T17:16:11;2.22;;;0.80;;
28296;SDS011;62078;49.366;8.172;2023-12-28T17:18:38;1.98;;;0.73;;
28296;SDS011;62078;49.366;8.172;2023-12-28T17:21:04;1.38;;;0.70;;
28296;SDS011;62078;49.366;8.172;2023-12-28T17:23:36;2.38;;;0.70;;
28296;SDS011;62078;49.366;8.172;2023-12-28T17:26:04;2.20;;;0.88;;
28296;SDS011;62078;49.366;8.172;2023-12-28T17:28:46;2.70;;;0.80;;
28296;SDS011;62078;49.366;8.172;2023-12-28T17:31:18;1.73;;;0.90;;
28296;SDS011;62078;49.366;8.172;2023-12-28T17:33:47;2.15;;;0.80;;
28296;SDS011;62078;49.366;8.172;2023-12-28T17:36:13;2.67;;;1.05;;
28296;SDS011;62078;49.366;8.172;2023-12-28T17:38:39;3.20;;;0.73;;
28296;SDS011;62078;49.366;8.172;2023-12-28T17:41:12;4.03;;;0.82;;
28296;SDS011;62078;49.366;8.172;2023-12-28T17:43:51;2.53;;;0.98;;
28296;SDS011;62078;49.366;8.172;2023-12-28T17:46:24;2.80;;;1.08;;
28296;SDS011;62078;49.366;8.172;2023-12-28T17:48:56;2.17;;;0.90;;
28296;SDS011;62078;49.366;8.172;2023-12-28T17:51:26;4.28;;;0.85;;
28296;SDS011;62078;49.366;8.172;2023-12-28T17:53:55;3.15;;;0.90;;
28296;SDS011;62078;49.366;8.172;2023-12-28T17:56:20;1.65;;;0.75;;
28296;SDS011;62078;49.366;8.172;2023-12-28T17:58:46;2.97;;;0.95;;
28296;SDS011;62078;49.366;8.172;2023-12-28T18:01:12;5.25;;;0.90;;
28296;SDS011;62078;49.366;8.172;2023-12-28T18:03:38;7.88;;;2.80;;
28296;SDS011;62078;49.366;8.172;2023-12-28T18:06:04;4.97;;;1.98;;
28296;SDS011;62078;49.366;8.172;2023-12-28T18:08:30;6.00;;;2.03;;
28296;SDS011;62078;49.366;8.172;2023-12-28T18:10:56;12.82;;;6.18;;
28296;SDS011;62078;49.366;8.172;2023-12-28T18:13:22;19.95;;;7.55;;
28296;SDS011;62078;49.366;8.172;2023-12-28T18:15:48;24.08;;;11.80;;
28296;SDS011;62078;49.366;8.172;2023-12-28T18:18:14;22.63;;;12.15;;
28296;SDS011;62078;49.366;8.172;2023-12-28T18:20:41;23.30;;;10.70;;
28296;SDS011;62078;49.366;8.172;2023-12-28T18:23:06;12.45;;;4.53;;
28296;SDS011;62078;49.366;8.172;2023-12-28T18:25:32;14.98;;;7.57;;
28296;SDS011;62078;49.366;8.172;2023-12-28T18:28:07;15.07;;;5.90;;
28296;SDS011;62078;49.366;8.172;2023-12-28T18:30:33;10.18;;;5.00;;
28296;SDS011;62078;49.366;8.172;2023-12-28T18:33:00;11.82;;;5.43;;
28296;SDS011;62078;49.366;8.172;2023-12-28T18:35:26;10.52;;;4.97;;
28296;SDS011;62078;49.366;8.172;2023-12-28T18:37:52;7.75;;;3.63;;
28296;SDS011;62078;49.366;8.172;2023-12-28T18:40:18;9.60;;;5.30;;
28296;SDS011;62078;49.366;8.172;2023-12-28T18:42:45;9.35;;;3.60;;
28296;SDS011;62078;49.366;8.172;2023-12-28T18:45:11;8.32;;;3.53;;
28296;SDS011;62078;49.366;8.172;2023-12-28T18:47:37;8.93;;;3.90;;
28296;SDS011;62078;49.366;8.172;2023-12-28T18:50:05;8.65;;;3.35;;
28296;SDS011;62078;49.366;8.172;2023-12-28T18:52:32;5.35;;;3.13;;
28296;SDS011;62078;49.366;8.172;2023-12-28T18:55:06;8.57;;;3.13;;
28296;SDS011;62078;49.366;8.172;2023-12-28T18:57:32;8.52;;;3.88;;
28296;SDS011;62078;49.366;8.172;2023-12-28T18:59:58;9.77;;;3.78;;
28296;SDS011;62078;49.366;8.172;2023-12-28T19:02:24;8.27;;;3.83;;
28296;SDS011;62078;49.366;8.172;2023-12-28T19:04:51;13.27;;;4.78;;
28296;SDS011;62078;49.366;8.172;2023-12-28T19:07:17;8.10;;;3.65;;
28296;SDS011;62078;49.366;8.172;2023-12-28T19:09:42;7.15;;;3.15;;
28296;SDS011;62078;49.366;8.172;2023-12-28T19:12:08;6.45;;;3.60;;
28296;SDS011;62078;49.366;8.172;2023-12-28T19:14:38;7.82;;;3.42;;
28296;SDS011;62078;49.366;8.172;2023-12-28T19:17:04;9.02;;;3.50;;
28296;SDS011;62078;49.366;8.172;2023-12-28T19:19:33;7.53;;;3.45;;
28296;SDS011;62078;49.366;8.172;2023-12-28T19:21:59;11.02;;;3.47;;
28296;SDS011;62078;49.366;8.172;2023-12-28T19:24:27;9.30;;;3.50;;
28296;SDS011;62078;49.366;8.172;2023-12-28T19:26:53;10.13;;;3.85;;
28296;SDS011;62078;49.366;8.172;2023-12-28T19:29:19;8.55;;;3.75;;
28296;SDS011;62078;49.366;8.172;2023-12-28T19:31:45;7.85;;;3.70;;
28296;SDS011;62078;49.366;8.172;2023-12-28T19:34:10;6.60;;;3.63;;
28296;SDS011;62078;49.366;8.172;2023-12-28T19:36:36;6.28;;;3.28;;
28296;SDS011;62078;49.366;8.172;2023-12-28T19:39:02;8.52;;;3.70;;
28296;SDS011;62078;49.366;8.172;2023-12-28T19:41:28;8.50;;;3.35;;
28296;SDS011;62078;49.366;8.172;2023-12-28T19:43:54;7.93;;;3.53;;
28296;SDS011;62078;49.366;8.172;2023-12-28T19:46:20;7.03;;;3.15;;
28296;SDS011;62078;49.366;8.172;2023-12-28T19:48:46;7.47;;;3.70;;
28296;SDS011;62078;49.366;8.172;2023-12-28T19:51:12;6.68;;;2.95;;
28296;SDS011;62078;49.366;8.172;2023-12-28T19:53:38;7.30;;;3.50;;
28296;SDS011;62078;49.366;8.172;2023-12-28T19:56:05;8.32;;;3.30;;
28296;SDS011;62078;49.366;8.172;2023-12-28T19:58:32;8.18;;;2.75;;
28296;SDS011;62078;49.366;8.172;2023-12-28T20:00:58;7.45;;;3.20;;
28296;SDS011;62078;49.366;8.172;2023-12-28T20:03:24;8.13;;;3.28;;
28296;SDS011;62078;49.366;8.172;2023-12-28T20:05:49;7.25;;;3.38;;
28296;SDS011;62078;49.366;8.172;2023-12-28T20:08:15;6.68;;;2.97;;
28296;SDS011;62078;49.366;8.172;2023-12-28T20:10:41;6.13;;;2.50;;
28296;SDS011;62078;49.366;8.172;2023-12-28T20:13:07;9.05;;;3.67;;
28296;SDS011;62078;49.366;8.172;2023-12-28T20:15:33;7.50;;;2.72;;
28296;SDS011;62078;49.366;8.172;2023-12-28T20:17:58;6.63;;;2.88;;
28296;SDS011;62078;49.366;8.172;2023-12-28T20:20:25;5.60;;;2.63;;
28296;SDS011;62078;49.366;8.172;2023-12-28T20:22:51;6.40;;;2.60;;
28296;SDS011;62078;49.366;8.172;2023-12-28T20:25:16;6.45;;;2.90;;
28296;SDS011;62078;49.366;8.172;2023-12-28T20:27:43;5.18;;;2.80;;
28296;SDS011;62078;49.366;8.172;2023-12-28T20:30:09;5.72;;;2.60;;
28296;SDS011;62078;49.366;8.172;2023-12-28T20:32:38;5.72;;;2.55;;
28296;SDS011;62078;49.366;8.172;2023-12-28T20:35:04;6.85;;;2.75;;
28296;SDS011;62078;49.366;8.172;2023-12-28T20:37:31;5.32;;;2.50;;
28296;SDS011;62078;49.366;8.172;2023-12-28T20:39:56;6.95;;;3.00;;
28296;SDS011;62078;49.366;8.172;2023-12-28T20:42:22;6.43;;;3.05;;
28296;SDS011;62078;49.366;8.172;2023-12-28T20:44:49;6.90;;;2.72;;
28296;SDS011;62078;49.366;8.172;2023-12-28T20:47:14;6.82;;;2.95;;
28296;SDS011;62078;49.366;8.172;2023-12-28T20:49:40;6.68;;;2.75;;
28296;SDS011;62078;49.366;8.172;2023-12-28T20:52:07;6.18;;;3.00;;
28296;SDS011;62078;49.366;8.172;2023-12-28T20:54:33;6.68;;;3.10;;
28296;SDS011;62078;49.366;8.172;2023-12-28T20:56:59;5.68;;;2.53;;
28296;SDS011;62078;49.366;8.172;2023-12-28T20:59:26;6.35;;;3.05;;
28296;SDS011;62078;49.366;8.172;2023-12-28T21:01:51;6.40;;;2.75;;
28296;SDS011;62078;49.366;8.172;2023-12-28T21:04:17;6.60;;;2.83;;
28296;SDS011;62078;49.366;8.172;2023-12-28T21:06:43;6.18;;;2.72;;
28296;SDS011;62078;49.366;8.172;2023-12-28T21:09:09;3.60;;;2.25;;
28296;SDS011;62078;49.366;8.172;2023-12-28T21:11:35;6.07;;;2.10;;
28296;SDS011;62078;49.366;8.172;2023-12-28T21:14:01;5.63;;;2.75;;
28296;SDS011;62078;49.366;8.172;2023-12-28T21:16:32;4.43;;;2.33;;
28296;SDS011;62078;49.366;8.172;2023-12-28T21:18:57;5.50;;;2.42;;
28296;SDS011;62078;49.366;8.172;2023-12-28T21:21:23;5.55;;;2.30;;
28296;SDS011;62078;49.366;8.172;2023-12-28T21:23:49;5.07;;;2.33;;
28296;SDS011;62078;49.366;8.172;2023-12-28T21:26:15;5.07;;;2.20;;
28296;SDS011;62078;49.366;8.172;2023-12-28T21:28:41;5.90;;;2.67;;
28296;SDS011;62078;49.366;8.172;2023-12-28T21:31:08;5.10;;;2.22;;
28296;SDS011;62078;49.366;8.172;2023-12-28T21:33:33;4.68;;;2.47;;
28296;SDS011;62078;49.366;8.172;2023-12-28T21:36:00;5.72;;;2.38;;
28296;SDS011;62078;49.366;8.172;2023-12-28T21:38:27;6.00;;;2.30;;
28296;SDS011;62078;49.366;8.172;2023-12-28T21:40:53;4.47;;;2.05;;
28296;SDS011;62078;49.366;8.172;2023-12-28T21:43:19;5.60;;;2.25;;
28296;SDS011;62078;49.366;8.172;2023-12-28T21:45:45;6.05;;;2.17;;
28296;SDS011;62078;49.366;8.172;2023-12-28T21:48:12;6.15;;;2.30;;
28296;SDS011;62078;49.366;8.172;2023-12-28T21:50:38;4.30;;;2.03;;
28296;SDS011;62078;49.366;8.172;2023-12-28T21:53:04;3.85;;;1.80;;
28296;SDS011;62078;49.366;8.172;2023-12-28T21:55:30;4.85;;;2.30;;
28296;SDS011;62078;49.366;8.172;2023-12-28T21:57:56;5.03;;;2.03;;
28296;SDS011;62078;49.366;8.172;2023-12-28T22:00:21;4.47;;;2.30;;
28296;SDS011;62078;49.366;8.172;2023-12-28T22:02:56;4.10;;;2.15;;
28296;SDS011;62078;49.366;8.172;2023-12-28T22:05:32;4.45;;;2.20;;
28296;SDS011;62078;49.366;8.172;2023-12-28T22:07:58;5.65;;;1.83;;
28296;SDS011;62078;49.366;8.172;2023-12-28T22:10:26;4.47;;;2.00;;
28296;SDS011;62078;49.366;8.172;2023-12-28T22:12:52;5.53;;;1.90;;
28296;SDS011;62078;49.366;8.172;2023-12-28T22:15:18;6.85;;;2.50;;
28296;SDS011;62078;49.366;8.172;2023-12-28T22:17:44;4.97;;;1.95;;
28296;SDS011;62078;49.366;8.172;2023-12-28T22:20:09;4.43;;;2.17;;
28296;SDS011;62078;49.366;8.172;2023-12-28T22:22:35;5.60;;;2.40;;
28296;SDS011;62078;49.366;8.172;2023-12-28T22:25:01;5.10;;;2.22;;
28296;SDS011;62078;49.366;8.172;2023-12-28T22:27:27;8.98;;;1.95;;
28296;SDS011;62078;49.366;8.172;2023-12-28T22:29:53;12.13;;;2.90;;
28296;SDS011;62078;49.366;8.172;2023-12-28T22:32:19;4.80;;;2.08;;
28296;SDS011;62078;49.366;8.172;2023-12-28T22:34:45;6.05;;;2.05;;
28296;SDS011;62078;49.366;8.172;2023-12-28T22:37:10;6.18;;;1.90;;
28296;SDS011;62078;49.366;8.172;2023-12-28T22:39:36;4.70;;;1.95;;
28296;SDS011;62078;49.366;8.172;2023-12-28T22:42:02;3.95;;;1.73;;
28296;SDS011;62078;49.366;8.172;2023-12-28T22:44:28;5.88;;;2.50;;
28296;SDS011;62078;49.366;8.172;2023-12-28T22:46:54;4.30;;;2.05;;
28296;SDS011;62078;49.366;8.172;2023-12-28T22:49:20;4.10;;;2.03;;
28296;SDS011;62078;49.366;8.172;2023-12-28T22:51:46;5.45;;;2.20;;
28296;SDS011;62078;49.366;8.172;2023-12-28T22:54:13;4.93;;;2.05;;
28296;SDS011;62078;49.366;8.172;2023-12-28T22:56:39;4.22;;;1.70;;
28296;SDS011;62078;49.366;8.172;2023-12-28T22:59:05;6.03;;;2.00;;
28296;SDS011;62078;49.366;8.172;2023-12-28T23:01:31;4.20;;;1.90;;
28296;SDS011;62078;49.366;8.172;2023-12-28T23:03:57;5.63;;;2.17;;
28296;SDS011;62078;49.366;8.172;2023-12-28T23:06:23;5.07;;;1.73;;
28296;SDS011;62078;49.366;8.172;2023-12-28T23:08:49;5.82;;;1.60;;
28296;SDS011;62078;49.366;8.172;2023-12-28T23:11:15;5.75;;;2.33;;
28296;SDS011;62078;49.366;8.172;2023-12-28T23:13:40;3.75;;;1.67;;
28296;SDS011;62078;49.366;8.172;2023-12-28T23:16:06;8.93;;;1.92;;
28296;SDS011;62078;49.366;8.172;2023-12-28T23:18:33;3.95;;;1.90;;
28296;SDS011;62078;49.366;8.172;2023-12-28T23:20:59;8.27;;;1.75;;
28296;SDS011;62078;49.366;8.172;2023-12-28T23:23:25;6.18;;;1.88;;
28296;SDS011;62078;49.366;8.172;2023-12-28T23:25:51;3.65;;;1.85;;
28296;SDS011;62078;49.366;8.172;2023-12-28T23:28:16;4.55;;;1.92;;
28296;SDS011;62078;49.366;8.172;2023-12-28T23:30:43;6.97;;;2.00;;
28296;SDS011;62078;49.366;8.172;2023-12-28T23:33:10;6.03;;;1.80;;
28296;SDS011;62078;49.366;8.172;2023-12-28T23:35:37;7.63;;;1.90;;
28296;SDS011;62078;49.366;8.172;2023-12-28T23:38:03;5.20;;;1.73;;
28296;SDS011;62078;49.366;8.172;2023-12-28T23:40:29;3.70;;;1.65;;
28296;SDS011;62078;49.366;8.172;2023-12-28T23:42:55;3.95;;;1.70;;
28296;SDS011;62078;49.366;8.172;2023-12-28T23:45:21;3.47;;;1.60;;
28296;SDS011;62078;49.366;8.172;2023-12-28T23:47:47;8.15;;;1.75;;
28296;SDS011;62078;49.366;8.172;2023-12-28T23:50:13;3.75;;;1.58;;
28296;SDS011;62078;49.366;8.172;2023-12-28T23:52:39;5.70;;;1.70;;
28296;SDS011;62078;49.366;8.172;2023-12-28T23:55:05;4.22;;;1.58;;
28296;SDS011;62078;49.366;8.172;2023-12-28T23:57:32;3.95;;;1.85;;
28296;SDS011;62078;49.366;8.172;2023-12-28T23:59:58;4.93;;;1.40;;
